Portada
METAR-TAF:

METAR-TAF

Aeroports :

Zagreb, Croàcia

latitud: 45-44N, longitud: 016-04E, altitud: 106 m

Observació

L'informe es va fer fa 44 minuts, a les 06:30 UTC
Vent 13 kt del Nord/Nord-Est, variant entre Nord i Est/Nord-Est
Temperatura -3°C
Humitat 54%
Pressió 1041 hPa
Visibilitat 10 km o més
sense núvols per sota de 1500 mi sense presència de cumulonimbus.

METAR: LDZA 230630Z 03013KT 360V060 CAVOK M03/M11 Q1041 NOSIG

Hora: 08:14 (07:14 UTC)

Pronòstic

L'informe es va fer fa 1 hora i 49 minuts, a les 05:25 UTC
Pronòstic vàlid del 23 a les 06 UTC al 24 a les 06 UTC
Vent 15 kt del Nord-Est
Visibilitat 10 km o més
sense núvols per sota de 1500 mi sense presència de cumulonimbus.
Evolucionant progressivament
l' 23 a les 16 UTC al 23 a les 18 UTC
Vent 8 kt del Nord-Est

TAF: LDZA 230525Z 2306/2406 04015KT CAVOK TX02/2313Z TNM06/2404Z BECMG 2316/2318 05008KT

Observacions i pronòstics meteorològics de més de 4000 aeroports (METAR i TAF).

Les estacions disponibles són els punts grocs i vermells al mapa.

Posi el ratolí al punt desitjat per veure el nom de l'estació.

Feu clic per veure les observacions i els pronòstics meteorològics.

Per canviar el mapa: feu clic els botons verds amb una creu de color negre per apropar; al botó verd amb un guió per allunyar la imatge; o en les fletxes verdes per a mapes adjacents.


METAR-TAF: